Unbenanntes Dokument
Flugplatz Bielefeld Platzwetter

 

Aktuelles Platzwetter am Flugplatz Bielefeld EDLI

19.01.19 ,06:16 Uhr

METAR EDLI 190615Z 11005KT 9999 ///146 M02/M03 Q1019

 

Windwerte

 

Wolkenuntergrenzen

Wind aktuell:100 ° mit 4 kt
Wind 10 min Extrem:
90 ° bis 140 ° mit 3 kt bis 7 kt
Seitenwindkomponente: -0.5 kt
Wolkengrenze 1: 14600 ft
Wolkengrenze 2:
Wolkengrenze 3:

Webcam

Temperatur

       

Sichtweite:

20.000 Meter

-2.9 °C
Taupunkt: -3.9 °C
Luftfeuchtigkeit: 92 %

Luftdruck:

QNH: 1019 hPa (30.09 in Hg)
QFE: 1002 hPa (29.59 in Hg)

Diese Daten werden automatisch ermittelt bzw. übertragen und sind nicht geprüft. Für die Richtigkeit wird daher keine Gewähr übernommen. Sie ersetzen im übrigen nicht die Flugwetterberatung. Alle Zeitangaben beziehen sich auf UTC. Die Seite wird einmal die Minute aktualisiert! Sollten Sie ein ältere Seite haben, so drücken Sie bitte auf den Reload Button Ihres Browsers!